Terminal Aerodrome Forecast
Issued by NWS

Home | Current Version | Previous Version | Text Only | Print | Product List | Glossary On
Versions: 1 2 3 4 5 6 7 8 9 10 11 12 13 14 15 16 17
000
FTUS41 KPHI 301509 AAB
TAFMIV
TAF AMD
KMIV 301509Z 3015/3112 21006KT P6SM SCT015 SCT045
      TEMPO 3015/3017 BKN015 BKN045
     FM301700 22008KT P6SM SCT045
     FM302000 22008KT P6SM BKN045
      TEMPO 3020/3024 4SM -TSRA BR OVC025CB
     FM310200 VRB03KT 5SM BR OVC250=

USA.gov is the U.S. government's official web portal to all federal, state and local government web resources and services.